createdAt,value
2023-01-15T00:00:11.526Z,77.71
2023-01-15T00:00:32.576Z,77.72
2023-01-15T00:00:53.630Z,77.70
2023-01-15T00:01:14.716Z,77.70
2023-01-15T00:01:35.744Z,77.70
2023-01-15T00:01:56.801Z,77.70
2023-01-15T00:02:17.934Z,77.70
2023-01-15T00:02:39.038Z,77.69
2023-01-15T00:03:00.187Z,77.73
2023-01-15T00:03:21.301Z,77.71
2023-01-15T00:03:42.405Z,77.67
2023-01-15T00:04:03.465Z,77.69
2023-01-15T00:04:24.525Z,77.71
2023-01-15T00:04:45.734Z,77.71
2023-01-15T00:05:06.781Z,77.67
2023-01-15T00:05:27.846Z,77.66
2023-01-15T00:05:48.926Z,77.69
2023-01-15T00:06:09.983Z,77.67
2023-01-15T00:06:31.044Z,77.65
2023-01-15T00:06:52.108Z,77.64
2023-01-15T00:07:13.166Z,77.66
2023-01-15T00:07:34.216Z,77.66
2023-01-15T00:07:55.289Z,77.66
2023-01-15T00:08:16.331Z,77.66
2023-01-15T00:08:37.397Z,77.60
2023-01-15T00:08:58.469Z,77.69
2023-01-15T00:09:19.531Z,77.65
2023-01-15T00:09:40.583Z,77.64
2023-01-15T00:10:01.851Z,77.66
2023-01-15T00:10:22.887Z,77.65
2023-01-15T00:10:43.936Z,77.70
2023-01-15T00:11:04.997Z,77.68
2023-01-15T00:11:26.057Z,77.64
2023-01-15T00:11:47.113Z,77.64
2023-01-15T00:12:08.201Z,77.64
2023-01-15T00:12:29.242Z,77.68
2023-01-15T00:12:50.287Z,77.65
2023-01-15T00:13:11.354Z,77.68
2023-01-15T00:13:32.433Z,77.69
2023-01-15T00:13:53.488Z,77.68
2023-01-15T00:14:14.558Z,77.70
2023-01-15T00:14:35.645Z,77.77
2023-01-15T00:14:56.689Z,77.70
2023-01-15T00:15:17.913Z,77.75
2023-01-15T00:15:38.990Z,77.77
2023-01-15T00:16:00.157Z,77.73
2023-01-15T00:16:21.262Z,77.69
2023-01-15T00:16:42.313Z,77.68
2023-01-15T00:17:03.356Z,77.72
2023-01-15T00:17:24.410Z,77.72
2023-01-15T00:17:45.486Z,77.74
2023-01-15T00:18:06.567Z,77.68
2023-01-15T00:18:27.613Z,77.67
2023-01-15T00:18:48.711Z,77.71
2023-01-15T00:19:09.732Z,77.63
2023-01-15T00:19:30.812Z,77.68
2023-01-15T00:19:51.868Z,77.64
2023-01-15T00:20:13.009Z,77.66
2023-01-15T00:20:34.103Z,77.68
2023-01-15T00:20:55.165Z,77.67
2023-01-15T00:21:16.231Z,77.61
2023-01-15T00:21:37.296Z,77.60
2023-01-15T00:21:58.375Z,77.66
2023-01-15T00:22:19.396Z,77.62
2023-01-15T00:22:40.449Z,77.63
2023-01-15T00:23:01.516Z,77.64
2023-01-15T00:23:22.583Z,77.65
2023-01-15T00:23:43.637Z,77.66
2023-01-15T00:24:04.727Z,77.70
2023-01-15T00:24:25.755Z,77.70
2023-01-15T00:24:46.819Z,77.68
2023-01-15T00:25:07.872Z,77.68
2023-01-15T00:25:28.918Z,77.67
2023-01-15T00:25:50.168Z,77.66
2023-01-15T00:26:11.205Z,77.66
2023-01-15T00:26:32.261Z,77.61
2023-01-15T00:26:53.322Z,77.67
2023-01-15T00:27:14.409Z,77.66
2023-01-15T00:27:35.449Z,77.66
2023-01-15T00:27:56.512Z,77.68
2023-01-15T00:28:17.596Z,77.67
2023-01-15T00:28:38.630Z,77.66
2023-01-15T00:28:59.681Z,77.67
2023-01-15T00:29:20.755Z,77.65
2023-01-15T00:29:41.805Z,77.65
2023-01-15T00:30:02.880Z,77.67
2023-01-15T00:30:23.915Z,77.61
2023-01-15T00:30:44.975Z,77.67
2023-01-15T00:31:06.219Z,77.63
2023-01-15T00:31:27.284Z,77.64
2023-01-15T00:31:48.319Z,77.67
2023-01-15T00:32:09.382Z,77.61
2023-01-15T00:32:30.429Z,77.66
2023-01-15T00:32:51.497Z,77.64
2023-01-15T00:33:12.557Z,77.58
2023-01-15T00:33:33.729Z,77.62
2023-01-15T00:33:54.807Z,77.61
2023-01-15T00:34:15.848Z,77.63
2023-01-15T00:34:36.900Z,77.63
2023-01-15T00:34:57.956Z,77.59
2023-01-15T00:35:19.019Z,77.57
2023-01-15T00:35:40.072Z,77.57
2023-01-15T00:36:01.125Z,77.53
2023-01-15T00:36:22.346Z,77.57
2023-01-15T00:36:43.397Z,77.59
2023-01-15T00:37:04.445Z,77.55
2023-01-15T00:37:25.523Z,77.57
2023-01-15T00:37:46.616Z,77.50
2023-01-15T00:38:07.663Z,77.49
2023-01-15T00:38:28.755Z,77.49
2023-01-15T00:38:49.795Z,77.44
2023-01-15T00:39:10.855Z,77.47
2023-01-15T00:39:31.926Z,77.51
2023-01-15T00:39:52.985Z,77.53
2023-01-15T00:40:14.039Z,77.53
2023-01-15T00:40:35.091Z,77.46
2023-01-15T00:40:56.160Z,77.47
2023-01-15T00:41:17.213Z,77.48
2023-01-15T00:41:38.449Z,77.46
2023-01-15T00:41:59.519Z,77.50
2023-01-15T00:42:20.587Z,77.48
2023-01-15T00:42:41.995Z,77.50
2023-01-15T00:43:03.712Z,77.49
2023-01-15T00:43:24.766Z,77.44
2023-01-15T00:43:45.815Z,77.45
2023-01-15T00:44:06.880Z,77.48
2023-01-15T00:44:27.923Z,77.43
2023-01-15T00:44:49.012Z,77.42
2023-01-15T00:45:10.070Z,77.47
2023-01-15T00:45:31.255Z,77.44
2023-01-15T00:45:53.175Z,77.41
2023-01-15T00:46:14.317Z,77.39
2023-01-15T00:46:35.448Z,77.40
2023-01-15T00:46:56.628Z,77.40
2023-01-15T00:47:17.700Z,77.36
2023-01-15T00:47:38.771Z,77.41
2023-01-15T00:47:59.831Z,77.43
2023-01-15T00:48:20.897Z,77.41
2023-01-15T00:48:41.954Z,77.42
2023-01-15T00:49:03.022Z,77.43
2023-01-15T00:49:24.084Z,77.35
2023-01-15T00:49:45.154Z,77.39
2023-01-15T00:50:06.198Z,77.44
2023-01-15T00:50:27.256Z,77.42
2023-01-15T00:50:48.407Z,77.42
2023-01-15T00:51:09.455Z,77.46
2023-01-15T00:51:30.525Z,77.41
2023-01-15T00:51:51.593Z,77.45
2023-01-15T00:52:12.681Z,77.45
2023-01-15T00:52:33.720Z,77.46
2023-01-15T00:52:54.781Z,77.43
2023-01-15T00:53:15.844Z,77.47
2023-01-15T00:53:36.902Z,77.44
2023-01-15T00:53:57.961Z,77.44
2023-01-15T00:54:19.025Z,77.41
2023-01-15T00:54:40.082Z,77.46
2023-01-15T00:55:01.141Z,77.50
2023-01-15T00:55:22.212Z,77.44
2023-01-15T00:55:43.269Z,77.43
2023-01-15T00:56:04.321Z,77.46
2023-01-15T00:56:25.391Z,77.45
2023-01-15T00:56:46.443Z,77.42
2023-01-15T00:57:07.515Z,77.44
2023-01-15T00:57:28.602Z,77.43
2023-01-15T00:57:49.668Z,77.47
2023-01-15T00:58:10.700Z,77.47
2023-01-15T00:58:31.761Z,77.51
2023-01-15T00:58:52.833Z,77.45
2023-01-15T00:59:13.883Z,77.49
2023-01-15T00:59:34.946Z,77.46
2023-01-15T00:59:56.006Z,77.43
2023-01-15T01:00:17.091Z,77.46
2023-01-15T01:00:38.176Z,77.48
2023-01-15T01:00:59.367Z,77.51
2023-01-15T01:01:20.534Z,77.49
2023-01-15T01:01:41.727Z,77.48
2023-01-15T01:02:02.948Z,77.49
2023-01-15T01:02:24.100Z,77.50
2023-01-15T01:02:45.254Z,77.53
2023-01-15T01:03:06.296Z,77.56
2023-01-15T01:03:27.370Z,77.59
2023-01-15T01:03:48.420Z,77.66
2023-01-15T01:04:09.472Z,77.67
2023-01-15T01:04:30.530Z,77.60
2023-01-15T01:04:51.589Z,77.65
2023-01-15T01:05:12.649Z,77.62
2023-01-15T01:05:33.712Z,77.67
2023-01-15T01:05:54.773Z,77.67
2023-01-15T01:06:15.838Z,77.65
2023-01-15T01:06:36.894Z,77.66
2023-01-15T01:06:57.949Z,77.64
2023-01-15T01:07:19.015Z,77.65
2023-01-15T01:07:40.090Z,77.69
2023-01-15T01:08:01.312Z,77.70
2023-01-15T01:08:22.359Z,77.72
2023-01-15T01:08:43.427Z,77.73
2023-01-15T01:09:04.482Z,77.76
2023-01-15T01:09:25.560Z,77.73
2023-01-15T01:09:46.601Z,77.73
2023-01-15T01:10:07.661Z,77.78
2023-01-15T01:10:28.727Z,77.78
2023-01-15T01:10:49.792Z,77.73
2023-01-15T01:11:10.881Z,77.80
2023-01-15T01:11:31.934Z,77.78
2023-01-15T01:11:52.970Z,77.79
2023-01-15T01:12:14.029Z,77.81
2023-01-15T01:12:35.090Z,77.82
2023-01-15T01:12:56.215Z,77.81
2023-01-15T01:13:17.405Z,77.84
2023-01-15T01:13:38.472Z,77.84
2023-01-15T01:13:59.528Z,77.85
2023-01-15T01:14:20.583Z,77.90
2023-01-15T01:14:41.644Z,77.89
2023-01-15T01:15:02.693Z,77.87
2023-01-15T01:15:23.804Z,77.94
2023-01-15T01:15:44.840Z,77.92
2023-01-15T01:16:05.919Z,77.94
2023-01-15T01:16:27.016Z,77.92
2023-01-15T01:16:48.063Z,77.96
2023-01-15T01:17:09.154Z,78.00
2023-01-15T01:17:30.190Z,77.98
2023-01-15T01:17:51.256Z,78.03
2023-01-15T01:18:12.319Z,78.06
2023-01-15T01:18:33.410Z,78.01
2023-01-15T01:18:54.465Z,78.00
2023-01-15T01:19:15.526Z,78.03
2023-01-15T01:19:36.578Z,77.98
2023-01-15T01:19:57.641Z,78.00
2023-01-15T01:20:18.700Z,77.98
2023-01-15T01:20:39.761Z,77.98
2023-01-15T01:21:00.823Z,77.98
2023-01-15T01:21:21.931Z,78.01
2023-01-15T01:21:42.993Z,77.98
2023-01-15T01:22:04.052Z,78.03
2023-01-15T01:22:25.116Z,78.03
2023-01-15T01:22:46.172Z,77.96
2023-01-15T01:23:07.220Z,78.01
2023-01-15T01:23:28.278Z,77.99
2023-01-15T01:23:49.357Z,78.02
2023-01-15T01:24:10.431Z,78.02
2023-01-15T01:24:31.476Z,78.07
2023-01-15T01:24:52.537Z,77.99
2023-01-15T01:25:13.598Z,78.06
2023-01-15T01:25:34.660Z,78.00
2023-01-15T01:25:55.718Z,77.99
2023-01-15T01:26:16.777Z,78.02
2023-01-15T01:26:37.832Z,77.98
2023-01-15T01:26:58.920Z,78.04
2023-01-15T01:27:19.988Z,78.03
2023-01-15T01:27:41.050Z,78.04
2023-01-15T01:28:02.089Z,78.04
2023-01-15T01:28:23.140Z,78.04
2023-01-15T01:28:44.199Z,78.05
2023-01-15T01:29:05.702Z,78.05
2023-01-15T01:29:26.738Z,78.09
2023-01-15T01:29:47.788Z,78.08
2023-01-15T01:30:08.847Z,78.14
2023-01-15T01:30:29.917Z,78.08
2023-01-15T01:30:50.954Z,78.06
2023-01-15T01:31:12.089Z,78.12
2023-01-15T01:31:33.208Z,78.16
2023-01-15T01:31:54.239Z,78.16
2023-01-15T01:32:15.311Z,78.17
2023-01-15T01:32:36.352Z,78.18
2023-01-15T01:32:57.457Z,78.26
2023-01-15T01:33:18.495Z,78.28
2023-01-15T01:33:39.569Z,78.36
2023-01-15T01:34:00.626Z,78.35
2023-01-15T01:34:21.829Z,78.30
2023-01-15T01:34:42.890Z,78.35
2023-01-15T01:35:03.937Z,78.37
2023-01-15T01:35:24.996Z,78.36
2023-01-15T01:35:46.076Z,78.39
2023-01-15T01:36:07.130Z,78.40
2023-01-15T01:36:28.191Z,78.42
2023-01-15T01:36:49.252Z,78.45
2023-01-15T01:37:10.328Z,78.40
2023-01-15T01:37:31.374Z,78.44
2023-01-15T01:37:52.441Z,78.43
2023-01-15T01:38:13.506Z,78.44
2023-01-15T01:38:34.565Z,78.51
2023-01-15T01:38:55.626Z,78.43
2023-01-15T01:39:16.698Z,78.48
2023-01-15T01:39:37.773Z,78.45
2023-01-15T01:39:58.834Z,78.51
2023-01-15T01:40:19.909Z,78.45
2023-01-15T01:40:40.962Z,78.49
2023-01-15T01:41:02.032Z,78.47
2023-01-15T01:41:23.096Z,78.48
2023-01-15T01:41:44.158Z,78.46
2023-01-15T01:42:05.230Z,78.42
2023-01-15T01:42:26.278Z,78.44
2023-01-15T01:42:47.338Z,78.49
2023-01-15T01:43:08.391Z,78.49
2023-01-15T01:43:29.452Z,78.53
2023-01-15T01:43:50.508Z,78.52
2023-01-15T01:44:11.561Z,78.53
2023-01-15T01:44:32.620Z,78.44
2023-01-15T01:44:53.693Z,78.53
2023-01-15T01:45:14.755Z,78.50
2023-01-15T01:45:35.896Z,78.47
2023-01-15T01:45:57.000Z,78.51
2023-01-15T01:46:18.043Z,78.49
2023-01-15T01:46:39.103Z,78.51
2023-01-15T01:47:00.158Z,78.49
2023-01-15T01:47:21.239Z,78.50
2023-01-15T01:47:42.289Z,78.51
2023-01-15T01:48:03.354Z,78.57
2023-01-15T01:48:24.397Z,78.53
2023-01-15T01:48:45.443Z,78.55
2023-01-15T01:49:06.505Z,78.57
2023-01-15T01:49:27.570Z,78.51
2023-01-15T01:49:48.627Z,78.51
2023-01-15T01:50:09.856Z,78.52
2023-01-15T01:50:30.940Z,78.56
2023-01-15T01:50:51.976Z,78.55
2023-01-15T01:51:13.032Z,78.57
2023-01-15T01:51:34.088Z,78.61
2023-01-15T01:51:55.144Z,78.60
2023-01-15T01:52:16.212Z,78.58
2023-01-15T01:52:37.253Z,78.57
2023-01-15T01:52:58.321Z,78.58
2023-01-15T01:53:19.388Z,78.58
2023-01-15T01:53:40.437Z,78.55
2023-01-15T01:54:01.529Z,78.56
2023-01-15T01:54:22.578Z,78.62
2023-01-15T01:54:43.646Z,78.61
2023-01-15T01:55:04.686Z,78.62
2023-01-15T01:55:25.758Z,78.63
2023-01-15T01:55:46.818Z,78.69
2023-01-15T01:56:07.873Z,78.67
2023-01-15T01:56:28.934Z,78.66
2023-01-15T01:56:50.021Z,78.68
2023-01-15T01:57:11.069Z,78.67
2023-01-15T01:57:32.139Z,78.74
2023-01-15T01:57:53.186Z,78.74
2023-01-15T01:58:14.232Z,78.79
2023-01-15T01:58:35.290Z,78.82
2023-01-15T01:58:56.367Z,78.78
2023-01-15T01:59:17.438Z,78.80
2023-01-15T01:59:38.549Z,78.79
2023-01-15T01:59:59.576Z,78.76
2023-01-15T02:00:20.651Z,78.75
2023-01-15T02:00:41.923Z,78.73
2023-01-15T02:01:03.058Z,78.78
2023-01-15T02:01:24.220Z,78.72
2023-01-15T02:01:45.416Z,78.72
2023-01-15T02:02:06.636Z,78.77
2023-01-15T02:02:27.772Z,78.80
2023-01-15T02:02:48.854Z,78.74
2023-01-15T02:03:09.894Z,78.75
2023-01-15T02:03:30.952Z,78.75
2023-01-15T02:03:52.001Z,78.76
2023-01-15T02:04:13.070Z,78.76
2023-01-15T02:04:34.143Z,78.76
2023-01-15T02:04:55.179Z,78.71
2023-01-15T02:05:16.248Z,78.68
2023-01-15T02:05:37.300Z,78.71
2023-01-15T02:05:58.562Z,78.68
2023-01-15T02:06:19.603Z,78.66
2023-01-15T02:06:40.678Z,78.67
2023-01-15T02:07:01.740Z,78.68
2023-01-15T02:07:22.818Z,78.60
2023-01-15T02:07:43.867Z,78.61
2023-01-15T02:08:04.925Z,78.53
2023-01-15T02:08:25.995Z,78.50
2023-01-15T02:08:47.049Z,78.44
2023-01-15T02:09:08.104Z,78.38
2023-01-15T02:09:29.191Z,78.36
2023-01-15T02:09:50.225Z,78.37
2023-01-15T02:10:11.296Z,78.32
2023-01-15T02:10:32.357Z,78.25
2023-01-15T02:10:53.411Z,78.26
2023-01-15T02:11:14.645Z,78.20
2023-01-15T02:11:35.710Z,78.19
2023-01-15T02:11:56.742Z,78.19
2023-01-15T02:12:17.799Z,78.16
2023-01-15T02:12:38.863Z,78.13
2023-01-15T02:12:59.920Z,78.13
2023-01-15T02:13:20.981Z,78.08
2023-01-15T02:13:42.041Z,78.15
2023-01-15T02:14:03.122Z,78.12
2023-01-15T02:14:24.258Z,78.16
2023-01-15T02:14:45.294Z,78.19
2023-01-15T02:15:06.354Z,78.17
2023-01-15T02:15:27.425Z,78.21
2023-01-15T02:15:48.460Z,78.17
2023-01-15T02:16:09.600Z,78.14
2023-01-15T02:16:30.873Z,78.11
2023-01-15T02:16:51.926Z,78.12
2023-01-15T02:17:12.987Z,78.11
2023-01-15T02:17:34.051Z,78.05
2023-01-15T02:17:55.093Z,78.03
2023-01-15T02:18:16.158Z,78.05
2023-01-15T02:18:37.209Z,78.09
2023-01-15T02:18:58.268Z,78.06
2023-01-15T02:19:19.329Z,78.03
2023-01-15T02:19:40.377Z,78.03
2023-01-15T02:20:01.439Z,78.05
2023-01-15T02:20:22.500Z,77.97
2023-01-15T02:20:43.552Z,77.98
2023-01-15T02:21:04.605Z,77.99
2023-01-15T02:21:25.690Z,77.96
2023-01-15T02:21:46.774Z,77.93
2023-01-15T02:22:07.820Z,77.94
2023-01-15T02:22:28.869Z,77.88
2023-01-15T02:22:49.923Z,77.92
2023-01-15T02:23:10.982Z,77.92
2023-01-15T02:23:32.052Z,77.94
2023-01-15T02:23:53.114Z,77.94
2023-01-15T02:24:14.156Z,77.91
2023-01-15T02:24:35.221Z,77.90
2023-01-15T02:24:56.284Z,77.89
2023-01-15T02:25:17.359Z,77.92
2023-01-15T02:25:38.418Z,77.91
2023-01-15T02:25:59.473Z,77.97
2023-01-15T02:26:20.531Z,77.96
2023-01-15T02:26:41.607Z,78.00
2023-01-15T02:27:02.660Z,77.99
2023-01-15T02:27:23.734Z,77.99
2023-01-15T02:27:44.820Z,78.01
2023-01-15T02:28:05.871Z,77.99
2023-01-15T02:28:26.920Z,77.99
2023-01-15T02:28:47.990Z,78.05
2023-01-15T02:29:09.035Z,78.03
2023-01-15T02:29:30.122Z,77.98
2023-01-15T02:29:51.149Z,78.05
2023-01-15T02:30:12.213Z,78.03
2023-01-15T02:30:33.266Z,78.06
2023-01-15T02:30:54.339Z,78.03
2023-01-15T02:31:15.457Z,78.02
2023-01-15T02:31:36.528Z,78.05
2023-01-15T02:31:57.617Z,78.07
2023-01-15T02:32:18.715Z,78.04
2023-01-15T02:32:39.811Z,78.12
2023-01-15T02:33:00.829Z,78.09
2023-01-15T02:33:21.893Z,78.06
2023-01-15T02:33:42.954Z,78.04
2023-01-15T02:34:04.003Z,77.95
2023-01-15T02:34:25.062Z,77.82
2023-01-15T02:34:46.129Z,77.59
2023-01-15T02:35:07.202Z,77.29
2023-01-15T02:35:28.277Z,76.78
2023-01-15T02:35:49.335Z,76.45
2023-01-15T02:36:10.399Z,76.23
2023-01-15T02:36:31.452Z,75.99
2023-01-15T02:36:52.516Z,75.78
2023-01-15T02:37:13.587Z,75.60
2023-01-15T02:37:34.828Z,75.42
2023-01-15T02:37:55.872Z,75.31
2023-01-15T02:38:16.944Z,75.21
2023-01-15T02:38:37.984Z,75.05
2023-01-15T02:38:59.058Z,74.92
2023-01-15T02:39:20.094Z,74.80
2023-01-15T02:39:41.158Z,74.71
2023-01-15T02:40:02.247Z,74.58
2023-01-15T02:40:23.313Z,74.54
2023-01-15T02:40:44.387Z,74.43
2023-01-15T02:41:05.474Z,74.31
2023-01-15T02:41:26.530Z,74.29
2023-01-15T02:41:47.585Z,74.22
2023-01-15T02:42:08.652Z,74.15
2023-01-15T02:42:29.704Z,74.14
2023-01-15T02:42:50.955Z,74.12
2023-01-15T02:43:12.013Z,74.10
2023-01-15T02:43:33.097Z,74.07
2023-01-15T02:43:54.162Z,74.01
2023-01-15T02:44:15.268Z,74.05
2023-01-15T02:44:36.337Z,74.09
2023-01-15T02:44:57.373Z,74.14
2023-01-15T02:45:18.435Z,74.14
2023-01-15T02:45:39.548Z,74.13
2023-01-15T02:46:00.636Z,74.16
2023-01-15T02:46:21.679Z,74.16
2023-01-15T02:46:42.749Z,74.24
2023-01-15T02:47:03.800Z,74.31
2023-01-15T02:47:24.872Z,74.29
2023-01-15T02:47:45.931Z,74.38
2023-01-15T02:48:07.162Z,74.39
2023-01-15T02:48:28.238Z,74.42
2023-01-15T02:48:49.296Z,74.46
2023-01-15T02:49:10.379Z,74.51
2023-01-15T02:49:31.405Z,74.55
2023-01-15T02:49:52.487Z,74.52
2023-01-15T02:50:13.530Z,74.53
2023-01-15T02:50:34.615Z,74.46
2023-01-15T02:50:55.657Z,74.47
2023-01-15T02:51:16.707Z,74.45
2023-01-15T02:51:37.768Z,74.47
2023-01-15T02:51:58.818Z,74.46
2023-01-15T02:52:19.868Z,74.54
2023-01-15T02:52:40.924Z,74.55
2023-01-15T02:53:02.004Z,74.61
2023-01-15T02:53:23.207Z,74.58
2023-01-15T02:53:44.296Z,74.61
2023-01-15T02:54:05.335Z,74.64
2023-01-15T02:54:26.424Z,74.66
2023-01-15T02:54:47.476Z,74.65
2023-01-15T02:55:08.570Z,74.67
2023-01-15T02:55:29.635Z,74.78
2023-01-15T02:55:50.685Z,74.80
2023-01-15T02:56:11.740Z,74.86
2023-01-15T02:56:32.802Z,74.94
2023-01-15T02:56:53.884Z,74.86
2023-01-15T02:57:14.920Z,74.85
2023-01-15T02:57:35.976Z,74.85
2023-01-15T02:57:57.028Z,74.86
2023-01-15T02:58:18.081Z,74.86
2023-01-15T02:58:39.160Z,74.94
2023-01-15T02:59:00.229Z,74.96
2023-01-15T02:59:21.265Z,74.94
2023-01-15T02:59:42.320Z,74.96
2023-01-15T03:00:03.373Z,75.02
2023-01-15T03:00:24.452Z,75.04
2023-01-15T03:00:45.532Z,75.08
2023-01-15T03:01:06.656Z,75.13
2023-01-15T03:01:27.850Z,75.10
2023-01-15T03:01:48.980Z,75.14
2023-01-15T03:02:10.163Z,75.16
2023-01-15T03:02:31.243Z,75.22
2023-01-15T03:02:52.412Z,75.25
2023-01-15T03:03:13.513Z,75.21
2023-01-15T03:03:34.570Z,75.20
2023-01-15T03:03:55.615Z,75.22
2023-01-15T03:04:16.680Z,75.18
2023-01-15T03:04:37.748Z,75.18
2023-01-15T03:04:58.800Z,75.17
2023-01-15T03:05:19.870Z,75.19
2023-01-15T03:05:40.923Z,75.18
2023-01-15T03:06:01.972Z,75.19
2023-01-15T03:06:23.047Z,75.24
2023-01-15T03:06:44.086Z,75.28
2023-01-15T03:07:05.166Z,75.34
2023-01-15T03:07:26.210Z,75.42
2023-01-15T03:07:47.311Z,75.41
2023-01-15T03:08:08.391Z,75.46
2023-01-15T03:08:29.441Z,75.47
2023-01-15T03:08:50.532Z,75.53
2023-01-15T03:09:11.605Z,75.55
2023-01-15T03:09:32.666Z,75.61
2023-01-15T03:09:53.721Z,75.60
2023-01-15T03:10:14.787Z,75.55
2023-01-15T03:10:35.848Z,75.57
2023-01-15T03:10:56.900Z,75.60
2023-01-15T03:11:17.955Z,75.52
2023-01-15T03:11:39.062Z,75.49
2023-01-15T03:12:00.102Z,75.52
2023-01-15T03:12:21.135Z,75.56
2023-01-15T03:12:42.180Z,75.61
2023-01-15T03:13:03.260Z,75.64
2023-01-15T03:13:24.320Z,75.56
2023-01-15T03:13:45.348Z,75.53
2023-01-15T03:14:06.416Z,75.54
2023-01-15T03:14:27.616Z,75.53
2023-01-15T03:14:48.692Z,75.56
2023-01-15T03:15:09.741Z,75.58
2023-01-15T03:15:30.797Z,75.57
2023-01-15T03:15:51.847Z,75.62
2023-01-15T03:16:12.924Z,75.56
2023-01-15T03:16:33.985Z,75.56
2023-01-15T03:16:55.127Z,75.53
2023-01-15T03:17:16.177Z,75.49
2023-01-15T03:17:37.234Z,75.55
2023-01-15T03:17:58.304Z,75.58
2023-01-15T03:18:19.348Z,75.68
2023-01-15T03:18:40.406Z,75.69
2023-01-15T03:19:01.461Z,75.74
2023-01-15T03:19:22.522Z,75.72
2023-01-15T03:19:43.592Z,75.71
2023-01-15T03:20:04.724Z,75.67
2023-01-15T03:20:25.746Z,75.69
2023-01-15T03:20:46.800Z,75.60
2023-01-15T03:21:07.859Z,75.59
2023-01-15T03:21:28.916Z,75.51
2023-01-15T03:21:49.975Z,75.52
2023-01-15T03:22:11.048Z,75.51
2023-01-15T03:22:32.122Z,75.46
2023-01-15T03:22:53.141Z,75.46
2023-01-15T03:23:14.197Z,75.48
2023-01-15T03:23:35.254Z,75.53
2023-01-15T03:23:56.307Z,75.55
2023-01-15T03:24:17.360Z,75.63
2023-01-15T03:24:38.439Z,75.66
2023-01-15T03:24:59.675Z,75.67
2023-01-15T03:25:20.747Z,75.63
2023-01-15T03:25:41.794Z,75.68
2023-01-15T03:26:02.850Z,75.68
2023-01-15T03:26:23.964Z,75.63
2023-01-15T03:26:44.988Z,75.56
2023-01-15T03:27:06.040Z,75.54
2023-01-15T03:27:27.099Z,75.45
2023-01-15T03:27:48.172Z,75.42
2023-01-15T03:28:09.227Z,75.42
2023-01-15T03:28:30.291Z,75.34
2023-01-15T03:28:51.347Z,75.29
2023-01-15T03:29:12.392Z,75.26
2023-01-15T03:29:33.458Z,75.18
2023-01-15T03:29:54.511Z,75.16
2023-01-15T03:30:15.747Z,75.10
2023-01-15T03:30:36.800Z,75.12
2023-01-15T03:30:57.879Z,75.13
2023-01-15T03:31:18.956Z,75.12
2023-01-15T03:31:40.018Z,75.19
2023-01-15T03:32:01.080Z,75.25
2023-01-15T03:32:22.141Z,75.22
2023-01-15T03:32:43.196Z,75.23
2023-01-15T03:33:04.250Z,75.20
2023-01-15T03:33:25.312Z,75.16
2023-01-15T03:33:46.386Z,75.16
2023-01-15T03:34:07.424Z,75.04
2023-01-15T03:34:28.562Z,75.02
2023-01-15T03:34:49.602Z,75.05
2023-01-15T03:35:10.657Z,75.03
2023-01-15T03:35:31.754Z,75.06
2023-01-15T03:35:52.820Z,75.00
2023-01-15T03:36:13.872Z,74.97
2023-01-15T03:36:34.957Z,74.98
2023-01-15T03:36:55.994Z,74.93
2023-01-15T03:37:17.047Z,74.92
2023-01-15T03:37:38.119Z,74.91
2023-01-15T03:37:59.168Z,74.89
2023-01-15T03:38:20.219Z,74.83
2023-01-15T03:38:41.309Z,74.88
2023-01-15T03:39:02.331Z,74.90
2023-01-15T03:39:23.412Z,74.83
2023-01-15T03:39:44.461Z,74.72
2023-01-15T03:40:05.520Z,74.73
2023-01-15T03:40:26.564Z,74.69
2023-01-15T03:40:47.652Z,74.62
2023-01-15T03:41:08.710Z,74.62
2023-01-15T03:41:29.798Z,74.56
2023-01-15T03:41:50.845Z,74.51
2023-01-15T03:42:11.891Z,74.46
2023-01-15T03:42:32.951Z,74.34
2023-01-15T03:42:54.006Z,74.30
2023-01-15T03:43:15.063Z,74.38
2023-01-15T03:43:36.114Z,74.39
2023-01-15T03:43:57.185Z,74.47
2023-01-15T03:44:18.233Z,74.53
2023-01-15T03:44:39.276Z,74.58
2023-01-15T03:45:00.332Z,74.53
2023-01-15T03:45:21.394Z,74.55
2023-01-15T03:45:42.512Z,74.60
2023-01-15T03:46:03.833Z,74.61
2023-01-15T03:46:24.879Z,74.56
2023-01-15T03:46:45.938Z,74.53
2023-01-15T03:47:06.989Z,74.58
2023-01-15T03:47:28.035Z,74.53
2023-01-15T03:47:49.093Z,74.55
2023-01-15T03:48:10.174Z,74.53
2023-01-15T03:48:31.226Z,74.57
2023-01-15T03:48:52.279Z,74.60
2023-01-15T03:49:13.324Z,74.57
2023-01-15T03:49:34.378Z,74.57
2023-01-15T03:49:55.437Z,74.60
2023-01-15T03:50:16.508Z,74.65
2023-01-15T03:50:37.558Z,74.69
2023-01-15T03:50:58.622Z,74.68
2023-01-15T03:51:19.826Z,74.75
2023-01-15T03:51:40.874Z,74.79
2023-01-15T03:52:01.946Z,74.74
2023-01-15T03:52:23.004Z,74.78
2023-01-15T03:52:44.092Z,74.72
2023-01-15T03:53:05.159Z,74.81
2023-01-15T03:53:26.213Z,74.79
2023-01-15T03:53:47.323Z,74.84
2023-01-15T03:54:08.492Z,74.81
2023-01-15T03:54:29.581Z,74.81
2023-01-15T03:54:50.651Z,74.80
2023-01-15T03:55:11.712Z,74.87
2023-01-15T03:55:32.780Z,74.92
2023-01-15T03:55:53.862Z,75.07
2023-01-15T03:56:14.942Z,75.08
2023-01-15T03:56:36.156Z,75.07
2023-01-15T03:56:57.209Z,75.04
2023-01-15T03:57:20.290Z,75.03
2023-01-15T03:57:41.375Z,75.00
2023-01-15T03:58:02.431Z,74.98
2023-01-15T03:58:23.473Z,75.00
2023-01-15T03:58:44.527Z,74.85
2023-01-15T03:59:05.653Z,74.88
2023-01-15T03:59:26.692Z,74.87
2023-01-15T03:59:47.746Z,74.94
2023-01-15T04:00:08.803Z,74.99
2023-01-15T04:00:29.859Z,74.97
2023-01-15T04:00:50.922Z,75.04
2023-01-15T04:01:12.064Z,75.07
2023-01-15T04:01:33.254Z,75.11
2023-01-15T04:01:54.484Z,75.16
2023-01-15T04:02:15.717Z,75.10
2023-01-15T04:02:36.820Z,75.06
2023-01-15T04:02:57.940Z,75.02
2023-01-15T04:03:18.991Z,74.95
2023-01-15T04:03:40.041Z,74.96
2023-01-15T04:04:01.175Z,74.84
2023-01-15T04:04:22.256Z,74.77
2023-01-15T04:04:43.303Z,74.67
2023-01-15T04:05:04.335Z,74.53
2023-01-15T04:05:25.411Z,74.46
2023-01-15T04:05:46.460Z,74.32
2023-01-15T04:06:07.521Z,74.17
2023-01-15T04:06:28.587Z,74.00
2023-01-15T04:06:49.672Z,73.97
2023-01-15T04:07:10.730Z,73.89
2023-01-15T04:07:31.795Z,73.87
2023-01-15T04:07:52.842Z,73.95
2023-01-15T04:08:15.816Z,73.94
2023-01-15T04:08:38.017Z,73.94
2023-01-15T04:08:59.092Z,73.90
2023-01-15T04:09:20.140Z,73.83
2023-01-15T04:09:41.183Z,73.78
2023-01-15T04:10:02.351Z,73.84
2023-01-15T04:10:23.425Z,73.77
2023-01-15T04:10:44.484Z,73.77
2023-01-15T04:11:05.551Z,73.74
2023-01-15T04:11:26.602Z,73.56
2023-01-15T04:11:47.686Z,73.40
2023-01-15T04:12:08.707Z,73.39
2023-01-15T04:12:29.937Z,73.36
2023-01-15T04:12:51.003Z,73.39
2023-01-15T04:13:12.108Z,73.42
2023-01-15T04:13:33.145Z,73.40
2023-01-15T04:13:54.271Z,73.41
2023-01-15T04:14:15.344Z,73.33
2023-01-15T04:14:36.476Z,73.42
2023-01-15T04:14:57.550Z,73.47
2023-01-15T04:15:18.614Z,73.43
2023-01-15T04:15:39.712Z,73.43
2023-01-15T04:16:00.859Z,73.53
2023-01-15T04:16:21.909Z,73.57
2023-01-15T04:16:42.967Z,73.63
2023-01-15T04:17:04.010Z,73.70
2023-01-15T04:17:25.071Z,73.76
2023-01-15T04:17:46.267Z,73.78
2023-01-15T04:18:07.353Z,73.85
2023-01-15T04:18:28.419Z,73.90
2023-01-15T04:18:49.483Z,73.91
2023-01-15T04:19:10.566Z,73.85
2023-01-15T04:19:31.594Z,73.78
2023-01-15T04:19:52.675Z,73.71
2023-01-15T04:20:13.711Z,73.66
2023-01-15T04:20:34.775Z,73.67
2023-01-15T04:20:55.852Z,73.63
2023-01-15T04:21:16.874Z,73.61
2023-01-15T04:21:37.925Z,73.48
2023-01-15T04:21:58.983Z,73.49
2023-01-15T04:22:20.067Z,73.54
2023-01-15T04:22:41.123Z,73.55
2023-01-15T04:23:02.196Z,73.59
2023-01-15T04:23:23.261Z,73.59
2023-01-15T04:23:44.321Z,73.67
2023-01-15T04:24:05.367Z,73.71
2023-01-15T04:24:26.433Z,73.73
2023-01-15T04:24:47.483Z,73.66
2023-01-15T04:25:08.554Z,73.53
2023-01-15T04:25:29.611Z,73.54
2023-01-15T04:25:50.662Z,73.64
2023-01-15T04:26:11.708Z,73.66
2023-01-15T04:26:32.776Z,73.68
2023-01-15T04:26:53.858Z,73.67
2023-01-15T04:27:14.892Z,73.71
2023-01-15T04:27:35.950Z,73.70
2023-01-15T04:27:57.013Z,73.68
2023-01-15T04:28:18.218Z,73.64
2023-01-15T04:28:39.273Z,73.67
2023-01-15T04:29:00.334Z,73.69
2023-01-15T04:29:21.394Z,73.77
2023-01-15T04:29:42.481Z,73.95
2023-01-15T04:30:03.568Z,74.04
2023-01-15T04:30:24.605Z,74.07
2023-01-15T04:30:45.679Z,74.10
2023-01-15T04:31:06.822Z,74.08
2023-01-15T04:31:27.898Z,74.17